Terminal Aerodrome Forecast
Issued by NWS

Home | Current Version | Previous Version | Text Only | Print | Product List | Glossary On
Versions: 1 2 3 4 5 6 7 8 9 10 11 12 13 14 15 16 17 18 19 20 21 22 23 24 25 26
431
FTUS43 KDLH 251628 AAB
TAFHYR
TAF AMD
KHYR 251628Z 2516/2612 28004KT P6SM -SHRA SCT015 BKN070
     FM251700 29007G15KT P6SM -SHRA SCT015 BKN025 OVC040
     FM251900 30009KT P6SM -SHRA SCT025 OVC035
     FM252200 31009G18KT P6SM -SHRA SCT030 OVC040
     FM260100 32005KT P6SM BKN050=

USA.gov is the U.S. government's official web portal to all federal, state and local government web resources and services.